createdAt,value
2022-12-18T00:00:19.063Z,76.61
2022-12-18T00:01:25.729Z,76.34
2022-12-18T00:02:28.102Z,75.81
2022-12-18T00:03:31.596Z,75.30
2022-12-18T00:04:34.955Z,75.25
2022-12-18T00:05:37.347Z,75.27
2022-12-18T00:06:40.779Z,75.24
2022-12-18T00:07:43.977Z,75.09
2022-12-18T00:08:47.793Z,74.82
2022-12-18T00:09:50.033Z,74.91
2022-12-18T00:10:53.433Z,74.59
2022-12-18T00:11:56.376Z,74.28
2022-12-18T00:13:00.724Z,74.16
2022-12-18T00:14:03.784Z,74.23
2022-12-18T00:15:07.784Z,73.73
2022-12-18T00:16:11.617Z,73.66
2022-12-18T00:17:16.614Z,73.29
2022-12-18T00:18:20.632Z,73.79
2022-12-18T00:19:24.415Z,73.92
2022-12-18T00:20:26.873Z,74.73
2022-12-18T00:21:31.735Z,74.26
2022-12-18T00:22:34.293Z,74.48
2022-12-18T00:23:40.023Z,74.65
2022-12-18T00:24:43.732Z,74.39
2022-12-18T00:25:45.960Z,74.71
2022-12-18T00:26:49.133Z,74.36
2022-12-18T00:27:51.383Z,74.00
2022-12-18T00:28:55.039Z,74.54
2022-12-18T00:29:57.259Z,74.93
2022-12-18T00:31:04.557Z,74.64
2022-12-18T00:32:06.814Z,73.74
2022-12-18T00:33:11.913Z,74.76
2022-12-18T00:34:14.797Z,74.89
2022-12-18T00:35:18.568Z,75.78
2022-12-18T00:36:23.256Z,75.94
2022-12-18T00:37:26.491Z,76.82
2022-12-18T00:38:28.910Z,75.98
2022-12-18T00:39:32.147Z,75.58
2022-12-18T00:40:34.587Z,74.81
2022-12-18T00:41:55.347Z,75.19
2022-12-18T00:42:57.570Z,75.88
2022-12-18T00:44:00.920Z,75.40
2022-12-18T00:45:07.635Z,74.99
2022-12-18T00:46:14.135Z,74.54
2022-12-18T00:47:16.503Z,74.45
2022-12-18T00:48:21.271Z,75.16
2022-12-18T00:49:23.731Z,75.72
2022-12-18T00:50:27.570Z,75.85
2022-12-18T00:51:29.854Z,75.82
2022-12-18T00:52:33.162Z,76.81
2022-12-18T00:53:35.710Z,76.69
2022-12-18T00:54:39.162Z,76.84
2022-12-18T00:55:42.143Z,76.91
2022-12-18T00:56:49.048Z,76.53
2022-12-18T00:57:53.105Z,75.87
2022-12-18T00:58:56.578Z,76.24
2022-12-18T00:59:59.900Z,76.43
2022-12-18T01:01:02.107Z,76.54
2022-12-18T01:02:05.504Z,77.16
2022-12-18T01:03:07.777Z,76.53
2022-12-18T01:04:12.800Z,76.02
2022-12-18T01:05:15.771Z,76.30
2022-12-18T01:06:19.484Z,76.14
2022-12-18T01:07:21.699Z,75.84
2022-12-18T01:08:25.245Z,75.87
2022-12-18T01:09:27.545Z,75.68
2022-12-18T01:10:30.981Z,76.23
2022-12-18T01:11:33.365Z,76.69
2022-12-18T01:12:36.770Z,75.96
2022-12-18T01:13:39.530Z,75.81
2022-12-18T01:14:43.032Z,76.79
2022-12-18T01:15:49.670Z,77.56
2022-12-18T01:16:53.104Z,76.08
2022-12-18T01:17:55.393Z,75.97
2022-12-18T01:18:58.804Z,76.48
2022-12-18T01:20:02.586Z,77.13
2022-12-18T01:21:09.317Z,76.88
2022-12-18T01:22:11.524Z,76.49
2022-12-18T01:23:14.934Z,76.60
2022-12-18T01:24:17.175Z,76.30
2022-12-18T01:25:20.515Z,76.29
2022-12-18T01:26:23.403Z,76.36
2022-12-18T01:27:26.652Z,76.29
2022-12-18T01:28:28.992Z,76.58
2022-12-18T01:29:32.439Z,75.36
2022-12-18T01:30:34.831Z,75.45
2022-12-18T01:31:38.255Z,74.95
2022-12-18T01:32:41.142Z,73.75
2022-12-18T01:33:44.452Z,74.63
2022-12-18T01:34:46.891Z,74.66
2022-12-18T01:35:51.651Z,76.49
2022-12-18T01:36:53.974Z,75.63
2022-12-18T01:37:57.498Z,75.05
2022-12-18T01:39:01.484Z,75.59
2022-12-18T01:40:05.279Z,75.55
2022-12-18T01:41:08.254Z,74.97
2022-12-18T01:42:14.246Z,75.43
2022-12-18T01:43:16.479Z,75.32
2022-12-18T01:45:02.487Z,75.95
2022-12-18T01:46:04.880Z,75.59
2022-12-18T01:47:08.182Z,76.59
2022-12-18T01:48:10.884Z,75.92
2022-12-18T01:49:14.245Z,76.50
2022-12-18T01:50:20.600Z,76.34
2022-12-18T01:51:25.777Z,75.96
2022-12-18T01:52:32.069Z,75.25
2022-12-18T01:53:35.745Z,75.39
2022-12-18T01:54:38.124Z,74.89
2022-12-18T01:55:47.805Z,74.54
2022-12-18T01:56:50.139Z,74.34
2022-12-18T01:57:56.192Z,74.86
2022-12-18T01:59:03.495Z,74.70
2022-12-18T02:00:10.343Z,75.13
2022-12-18T02:01:12.957Z,74.91
2022-12-18T02:02:18.149Z,74.65
2022-12-18T02:03:20.575Z,74.71
2022-12-18T02:04:25.155Z,73.90
2022-12-18T02:05:43.156Z,74.19
2022-12-18T02:06:49.433Z,74.34
2022-12-18T02:08:04.659Z,74.54
2022-12-18T02:09:15.220Z,74.56
2022-12-18T02:10:26.185Z,74.44
2022-12-18T02:11:40.939Z,75.04
2022-12-18T02:12:48.701Z,75.56
2022-12-18T02:14:01.507Z,75.80
2022-12-18T02:15:12.119Z,75.64
2022-12-18T02:16:22.475Z,76.06
2022-12-18T02:17:34.729Z,75.53
2022-12-18T02:18:41.021Z,76.05
2022-12-18T02:19:59.706Z,76.31
2022-12-18T02:21:10.608Z,75.77
2022-12-18T02:22:26.560Z,76.20
2022-12-18T02:23:42.775Z,77.16
2022-12-18T02:25:01.119Z,77.25
2022-12-18T02:26:11.223Z,77.06
2022-12-18T02:27:15.583Z,76.75
2022-12-18T02:28:21.183Z,76.24
2022-12-18T02:29:29.503Z,76.14
2022-12-18T02:30:35.070Z,76.14
2022-12-18T02:31:44.686Z,75.47
2022-12-18T02:32:52.268Z,76.05
2022-12-18T02:33:58.672Z,75.83
2022-12-18T02:35:03.360Z,75.76
2022-12-18T02:36:08.658Z,75.88
2022-12-18T02:37:15.014Z,75.23
2022-12-18T02:38:20.241Z,74.89
2022-12-18T02:39:25.171Z,74.75
2022-12-18T02:40:30.885Z,75.55
2022-12-18T02:41:37.242Z,75.37
2022-12-18T02:42:40.773Z,74.83
2022-12-18T02:43:48.797Z,74.68
2022-12-18T02:44:53.875Z,74.95
2022-12-18T02:45:58.481Z,74.73
2022-12-18T02:47:01.967Z,73.95
2022-12-18T02:48:04.685Z,73.45
2022-12-18T02:49:19.954Z,73.86
2022-12-18T02:50:32.339Z,73.54
2022-12-18T02:51:42.905Z,73.83
2022-12-18T02:52:57.358Z,73.71
2022-12-18T02:54:07.833Z,73.55
2022-12-18T02:55:22.360Z,74.34
2022-12-18T02:56:31.733Z,73.66
2022-12-18T02:57:45.273Z,73.94
2022-12-18T02:58:54.687Z,73.99
2022-12-18T03:00:03.853Z,75.17
2022-12-18T03:01:15.229Z,74.62
2022-12-18T03:02:26.459Z,74.87
2022-12-18T03:03:33.886Z,75.23
2022-12-18T03:04:42.628Z,74.95
2022-12-18T03:05:52.187Z,74.57
2022-12-18T03:06:58.536Z,75.19
2022-12-18T03:08:04.748Z,74.41
2022-12-18T03:09:14.356Z,74.33
2022-12-18T03:10:25.297Z,74.98
2022-12-18T03:11:51.103Z,74.42
2022-12-18T03:13:02.443Z,75.67
2022-12-18T03:14:08.155Z,75.17
2022-12-18T03:15:17.766Z,74.91
2022-12-18T03:16:25.581Z,74.93
2022-12-18T03:17:32.644Z,74.44
2022-12-18T03:18:39.657Z,74.41
2022-12-18T03:19:45.266Z,73.92
2022-12-18T03:20:51.373Z,74.59
2022-12-18T03:21:57.972Z,74.38
2022-12-18T03:23:08.903Z,74.10
2022-12-18T03:24:13.435Z,73.82
2022-12-18T03:25:18.817Z,73.57
2022-12-18T03:26:25.697Z,73.70
2022-12-18T03:27:30.416Z,74.29
2022-12-18T03:28:40.711Z,74.93
2022-12-18T03:29:48.797Z,74.74
2022-12-18T03:30:57.852Z,74.28
2022-12-18T03:32:05.806Z,73.63
2022-12-18T03:33:13.250Z,73.30
2022-12-18T03:34:18.401Z,72.85
2022-12-18T03:35:25.120Z,72.06
2022-12-18T03:36:28.537Z,71.69
2022-12-18T03:37:33.492Z,72.29
2022-12-18T03:38:35.984Z,72.39
2022-12-18T03:39:39.848Z,71.51
2022-12-18T03:40:54.258Z,71.59
2022-12-18T03:42:07.268Z,72.51
2022-12-18T03:43:14.644Z,73.07
2022-12-18T03:44:30.386Z,73.09
2022-12-18T03:45:37.375Z,72.04
2022-12-18T03:46:49.295Z,72.32
2022-12-18T03:48:01.247Z,72.20
2022-12-18T03:49:12.323Z,72.51
2022-12-18T03:50:21.056Z,71.50
2022-12-18T03:51:30.671Z,71.82
2022-12-18T03:52:39.594Z,72.21
2022-12-18T03:53:50.219Z,72.00
2022-12-18T03:54:56.497Z,71.44
2022-12-18T03:56:02.930Z,70.62
2022-12-18T03:57:10.785Z,71.09
2022-12-18T03:58:18.389Z,71.96
2022-12-18T03:59:23.353Z,71.51
2022-12-18T04:00:26.782Z,71.60
2022-12-18T04:01:33.831Z,71.58
2022-12-18T04:02:41.131Z,70.53
2022-12-18T04:03:45.991Z,70.64
2022-12-18T04:04:53.427Z,70.44
2022-12-18T04:05:57.083Z,70.04
2022-12-18T04:07:01.611Z,70.12
2022-12-18T04:08:04.639Z,70.46
2022-12-18T04:09:08.484Z,69.75
2022-12-18T04:10:13.028Z,70.76
2022-12-18T04:11:17.950Z,70.91
2022-12-18T04:12:20.197Z,71.08
2022-12-18T04:13:29.568Z,70.95
2022-12-18T04:14:36.772Z,71.53
2022-12-18T04:15:41.666Z,70.99
2022-12-18T04:16:44.152Z,71.06
2022-12-18T04:17:50.976Z,71.82
2022-12-18T04:18:53.586Z,72.06
2022-12-18T04:19:56.963Z,72.62
2022-12-18T04:20:59.593Z,72.03
2022-12-18T04:22:03.138Z,71.94
2022-12-18T04:23:05.704Z,72.46
2022-12-18T04:24:09.438Z,72.01
2022-12-18T04:25:11.909Z,71.69
2022-12-18T04:26:15.288Z,71.96
2022-12-18T04:27:17.638Z,71.25
2022-12-18T04:28:21.127Z,70.84
2022-12-18T04:29:24.025Z,71.00
2022-12-18T04:30:29.162Z,70.48
2022-12-18T04:31:31.541Z,70.85
2022-12-18T04:32:35.864Z,69.62
2022-12-18T04:33:38.413Z,69.91
2022-12-18T04:34:41.887Z,69.62
2022-12-18T04:35:44.353Z,70.14
2022-12-18T04:36:47.905Z,69.36
2022-12-18T04:37:50.271Z,69.50
2022-12-18T04:38:53.875Z,69.70
2022-12-18T04:39:56.556Z,69.00
2022-12-18T04:41:00.159Z,69.54
2022-12-18T04:42:02.319Z,69.22
2022-12-18T04:43:06.557Z,68.63
2022-12-18T04:44:09.228Z,68.86
2022-12-18T04:45:12.743Z,68.86
2022-12-18T04:46:16.313Z,68.55
2022-12-18T04:47:20.197Z,68.93
2022-12-18T04:48:22.509Z,68.84
2022-12-18T04:49:25.967Z,68.04
2022-12-18T04:50:28.815Z,68.55
2022-12-18T04:51:32.198Z,68.11
2022-12-18T04:52:34.477Z,68.30
2022-12-18T04:53:38.165Z,68.89
2022-12-18T04:54:40.984Z,69.61
2022-12-18T04:55:44.413Z,68.73
2022-12-18T04:56:46.879Z,69.49
2022-12-18T04:57:50.258Z,70.47
2022-12-18T04:58:52.607Z,70.75
2022-12-18T04:59:55.956Z,70.57
2022-12-18T05:00:58.444Z,71.67
2022-12-18T05:02:03.529Z,71.83
2022-12-18T05:03:05.990Z,72.39
2022-12-18T05:04:09.495Z,72.68
2022-12-18T05:05:11.932Z,72.85
2022-12-18T05:06:15.307Z,72.54
2022-12-18T05:07:17.652Z,72.39
2022-12-18T05:08:21.451Z,72.59
2022-12-18T05:09:25.000Z,73.32
2022-12-18T05:10:29.628Z,74.36
2022-12-18T05:11:34.535Z,72.92
2022-12-18T05:12:59.346Z,73.06
2022-12-18T05:14:03.594Z,74.60
2022-12-18T05:15:08.019Z,73.48
2022-12-18T05:16:10.671Z,73.51
2022-12-18T05:17:15.519Z,73.09
2022-12-18T05:18:17.886Z,72.38
2022-12-18T05:19:21.287Z,73.26
2022-12-18T05:20:23.811Z,72.99
2022-12-18T05:21:27.169Z,72.63
2022-12-18T05:22:29.429Z,72.96
2022-12-18T05:23:32.679Z,72.67
2022-12-18T05:24:34.968Z,73.04
2022-12-18T05:25:38.319Z,72.52
2022-12-18T05:26:40.997Z,73.21
2022-12-18T05:27:44.978Z,73.00
2022-12-18T05:28:47.391Z,72.63
2022-12-18T05:29:50.860Z,72.36
2022-12-18T05:30:54.567Z,72.19
2022-12-18T05:31:58.106Z,72.70
2022-12-18T05:33:01.839Z,72.59
2022-12-18T05:34:05.117Z,73.31
2022-12-18T05:35:09.618Z,72.87
2022-12-18T05:36:13.294Z,72.90
2022-12-18T05:37:15.709Z,72.52
2022-12-18T05:38:19.165Z,72.57
2022-12-18T05:39:21.512Z,72.72
2022-12-18T05:40:24.763Z,72.90
2022-12-18T05:41:27.065Z,73.11
2022-12-18T05:42:30.368Z,73.02
2022-12-18T05:43:35.186Z,72.32
2022-12-18T05:44:38.391Z,73.07
2022-12-18T05:45:41.882Z,72.45
2022-12-18T05:46:45.283Z,72.26
2022-12-18T05:47:47.572Z,72.33
2022-12-18T05:48:52.683Z,71.99
2022-12-18T05:49:55.625Z,71.55
2022-12-18T05:51:06.793Z,72.19
2022-12-18T05:52:09.238Z,71.82
2022-12-18T05:53:12.471Z,71.90
2022-12-18T05:54:15.089Z,71.98
2022-12-18T05:55:18.429Z,72.35
2022-12-18T05:56:23.094Z,72.24
2022-12-18T05:57:26.426Z,71.56
2022-12-18T05:58:29.189Z,72.05
2022-12-18T05:59:32.571Z,71.59
2022-12-18T06:00:37.147Z,70.93
2022-12-18T06:01:40.594Z,70.28
2022-12-18T06:02:42.901Z,70.87
2022-12-18T06:03:46.764Z,70.78
2022-12-18T06:04:50.916Z,71.05
2022-12-18T06:05:54.158Z,70.87
2022-12-18T06:06:56.390Z,71.71
2022-12-18T06:08:00.298Z,72.55
2022-12-18T06:09:02.864Z,71.69
2022-12-18T06:10:07.529Z,71.38
2022-12-18T06:11:09.754Z,71.33
2022-12-18T06:12:13.412Z,70.61
2022-12-18T06:13:15.901Z,70.75
2022-12-18T06:14:19.294Z,71.12
2022-12-18T06:15:21.606Z,71.26
2022-12-18T06:16:25.466Z,70.72
2022-12-18T06:17:30.204Z,70.94
2022-12-18T06:18:33.628Z,70.89
2022-12-18T06:19:36.131Z,70.97
2022-12-18T06:20:42.446Z,70.93
2022-12-18T06:21:44.992Z,71.43
2022-12-18T06:22:48.332Z,72.06
2022-12-18T06:23:51.140Z,71.42
2022-12-18T06:24:54.444Z,70.53
2022-12-18T06:25:57.554Z,70.76
2022-12-18T06:27:01.015Z,70.96
2022-12-18T06:28:03.464Z,70.66
2022-12-18T06:29:07.034Z,70.68
2022-12-18T06:30:11.726Z,70.09
2022-12-18T06:31:15.160Z,69.91
2022-12-18T06:32:17.827Z,70.06
2022-12-18T06:33:21.066Z,70.23
2022-12-18T06:34:23.655Z,70.20
2022-12-18T06:35:27.062Z,71.39
2022-12-18T06:36:30.667Z,71.22
2022-12-18T06:37:34.191Z,71.85
2022-12-18T06:38:38.776Z,71.53
2022-12-18T06:39:42.270Z,71.18
2022-12-18T06:40:44.415Z,71.45
2022-12-18T06:41:48.176Z,71.78
2022-12-18T06:42:50.506Z,71.34
2022-12-18T06:43:59.327Z,72.05
2022-12-18T06:45:02.113Z,71.49
2022-12-18T06:46:07.459Z,72.02
2022-12-18T06:47:10.165Z,71.37
2022-12-18T06:48:13.520Z,71.90
2022-12-18T06:49:17.056Z,71.74
2022-12-18T06:50:20.419Z,71.93
2022-12-18T06:51:24.747Z,72.75
2022-12-18T06:52:29.537Z,72.47
2022-12-18T06:53:33.256Z,72.32
2022-12-18T06:54:36.796Z,72.26
2022-12-18T06:55:39.071Z,72.28
2022-12-18T06:56:42.716Z,72.70
2022-12-18T06:57:45.049Z,71.71
2022-12-18T06:58:48.338Z,71.63
2022-12-18T06:59:51.053Z,71.46
2022-12-18T07:00:54.469Z,71.24
2022-12-18T07:01:57.875Z,72.23
2022-12-18T07:03:01.393Z,71.73
2022-12-18T07:04:03.716Z,71.98
2022-12-18T07:05:10.963Z,72.00
2022-12-18T07:06:16.485Z,71.91
2022-12-18T07:07:20.393Z,72.09
2022-12-18T07:08:24.278Z,72.25
2022-12-18T07:09:29.984Z,72.46
2022-12-18T07:10:32.237Z,72.67
2022-12-18T07:11:36.095Z,72.38
2022-12-18T07:12:38.485Z,72.64
2022-12-18T07:13:42.033Z,72.62
2022-12-18T07:14:44.702Z,72.79
2022-12-18T07:15:48.086Z,72.79
2022-12-18T07:16:51.567Z,72.63
2022-12-18T07:17:54.401Z,71.93
2022-12-18T07:18:58.375Z,72.22
2022-12-18T07:20:00.611Z,71.95
2022-12-18T07:21:07.523Z,71.66
2022-12-18T07:22:09.752Z,72.43
2022-12-18T07:23:13.061Z,71.70
2022-12-18T07:24:16.864Z,71.97
2022-12-18T07:25:20.460Z,70.90
2022-12-18T07:26:23.463Z,71.47
2022-12-18T07:27:27.227Z,71.62
2022-12-18T07:28:30.490Z,72.07
2022-12-18T07:29:33.988Z,71.38
2022-12-18T07:30:39.593Z,71.81
2022-12-18T07:31:41.949Z,72.14
2022-12-18T07:32:45.277Z,71.60
2022-12-18T07:33:48.096Z,72.15
2022-12-18T07:34:51.440Z,72.50
2022-12-18T07:35:53.862Z,72.21
2022-12-18T07:36:57.175Z,73.21
2022-12-18T07:37:59.304Z,72.66
2022-12-18T07:39:02.717Z,72.80
2022-12-18T07:40:07.965Z,72.17
2022-12-18T07:41:13.986Z,72.16
2022-12-18T07:42:34.421Z,71.66
2022-12-18T07:43:38.612Z,72.29
2022-12-18T07:44:42.235Z,72.02
2022-12-18T07:45:45.077Z,72.44
2022-12-18T07:46:48.290Z,71.73
2022-12-18T07:47:51.119Z,71.92
2022-12-18T07:48:54.562Z,72.50
2022-12-18T07:49:56.961Z,72.22
2022-12-18T07:51:01.232Z,71.47
2022-12-18T07:52:03.615Z,71.35
2022-12-18T07:53:07.163Z,70.66
2022-12-18T07:54:09.523Z,71.30
2022-12-18T07:55:14.555Z,70.86
2022-12-18T07:56:32.395Z,71.16
2022-12-18T07:57:50.401Z,70.77
2022-12-18T07:58:54.809Z,72.05
2022-12-18T07:59:58.172Z,71.50
2022-12-18T08:01:04.707Z,70.89
2022-12-18T08:02:09.980Z,70.98
2022-12-18T08:03:13.777Z,70.38
2022-12-18T08:04:17.216Z,70.44
2022-12-18T08:05:19.435Z,70.02
2022-12-18T08:06:24.081Z,70.26
2022-12-18T08:07:26.977Z,70.28
2022-12-18T08:08:30.541Z,69.56
2022-12-18T08:09:32.914Z,69.69
2022-12-18T08:10:37.641Z,69.58
2022-12-18T08:11:41.307Z,70.34
2022-12-18T08:12:43.593Z,70.31
2022-12-18T08:13:46.876Z,70.67
2022-12-18T08:14:49.096Z,70.03
2022-12-18T08:15:59.172Z,70.46
2022-12-18T08:17:02.645Z,70.05
2022-12-18T08:18:06.523Z,69.71
2022-12-18T08:19:12.812Z,69.68
2022-12-18T08:20:16.069Z,69.92
2022-12-18T08:21:22.362Z,69.95
2022-12-18T08:22:26.552Z,69.09
2022-12-18T08:23:29.018Z,69.09
2022-12-18T08:24:32.358Z,68.74
2022-12-18T08:25:36.972Z,69.09
2022-12-18T08:26:40.224Z,69.41
2022-12-18T08:28:41.552Z,68.63
2022-12-18T08:29:44.917Z,68.98
2022-12-18T08:30:47.171Z,68.55
2022-12-18T08:31:50.572Z,68.27
2022-12-18T08:32:54.107Z,68.85
2022-12-18T08:33:57.720Z,69.05
2022-12-18T08:35:00.157Z,68.63
2022-12-18T08:36:04.933Z,68.54
2022-12-18T08:37:08.522Z,68.26
2022-12-18T08:38:10.981Z,67.78
2022-12-18T08:39:14.879Z,67.37
2022-12-18T08:40:17.457Z,66.77
2022-12-18T08:41:22.839Z,66.77
2022-12-18T08:42:43.840Z,66.10
2022-12-18T08:44:05.115Z,65.44
2022-12-18T08:45:09.713Z,66.43
2022-12-18T08:46:12.382Z,66.71
2022-12-18T08:47:15.840Z,66.53
2022-12-18T08:48:22.205Z,66.44
2022-12-18T08:49:25.756Z,66.55
2022-12-18T08:50:28.067Z,65.98
2022-12-18T08:51:31.644Z,65.55
2022-12-18T08:52:35.294Z,65.42
2022-12-18T08:53:37.852Z,65.55
2022-12-18T08:54:41.511Z,64.60
2022-12-18T08:55:49.957Z,63.69
2022-12-18T08:56:55.083Z,63.23
2022-12-18T08:57:57.232Z,62.46
2022-12-18T08:59:00.716Z,61.45
2022-12-18T09:00:04.721Z,60.86
2022-12-18T09:01:10.443Z,60.90
2022-12-18T09:02:14.133Z,61.34
2022-12-18T09:03:18.347Z,60.48
2022-12-18T09:04:21.943Z,60.95
2022-12-18T09:05:25.770Z,60.74
2022-12-18T09:06:28.041Z,60.71
2022-12-18T09:07:31.405Z,60.91
2022-12-18T09:08:33.603Z,60.84
2022-12-18T09:09:38.421Z,61.73
2022-12-18T09:10:43.681Z,61.71
2022-12-18T09:11:47.306Z,61.33
2022-12-18T09:12:51.298Z,62.58
2022-12-18T09:13:56.139Z,62.50
2022-12-18T09:14:58.595Z,62.56
2022-12-18T09:16:01.939Z,62.74
2022-12-18T09:17:04.426Z,62.63
2022-12-18T09:18:08.320Z,62.95
2022-12-18T09:19:12.390Z,62.58
2022-12-18T09:20:15.943Z,63.00
2022-12-18T09:21:21.430Z,63.58
2022-12-18T09:22:24.862Z,63.07
2022-12-18T09:23:27.085Z,62.56
2022-12-18T09:24:30.253Z,63.24
2022-12-18T09:25:34.261Z,62.86
2022-12-18T09:26:37.745Z,62.36
2022-12-18T09:27:42.130Z,63.08
2022-12-18T09:28:46.029Z,63.41
2022-12-18T09:29:49.313Z,63.10
2022-12-18T09:30:51.578Z,62.68
2022-12-18T09:31:54.991Z,62.01
2022-12-18T09:32:57.452Z,61.87
2022-12-18T09:34:00.817Z,61.65
2022-12-18T09:35:04.254Z,62.11
2022-12-18T09:36:09.271Z,61.62
2022-12-18T09:37:12.737Z,61.20
2022-12-18T09:38:16.718Z,60.95
2022-12-18T09:39:23.449Z,60.43
2022-12-18T09:40:30.370Z,60.56
2022-12-18T09:41:45.095Z,60.48
2022-12-18T09:42:53.224Z,60.08
2022-12-18T09:44:02.006Z,60.06
2022-12-18T09:45:06.506Z,60.38
2022-12-18T09:46:13.538Z,59.65
2022-12-18T09:47:21.933Z,60.44
2022-12-18T09:48:29.505Z,59.29
2022-12-18T09:49:37.262Z,60.23
2022-12-18T09:50:42.838Z,59.50
2022-12-18T09:51:49.429Z,58.94
2022-12-18T09:52:58.948Z,58.93
2022-12-18T09:54:05.974Z,57.93
2022-12-18T09:55:26.656Z,58.65
2022-12-18T09:56:33.137Z,58.49
2022-12-18T09:57:41.720Z,57.97
2022-12-18T09:58:51.431Z,57.64
2022-12-18T10:00:00.010Z,57.09
2022-12-18T10:01:03.755Z,56.90
2022-12-18T10:02:22.479Z,56.84
2022-12-18T10:03:26.000Z,57.13
2022-12-18T10:04:31.346Z,57.66
2022-12-18T10:05:42.505Z,57.31
2022-12-18T10:06:50.971Z,57.29
2022-12-18T10:08:04.679Z,59.47
2022-12-18T10:09:15.089Z,58.54
2022-12-18T10:10:28.204Z,58.56
2022-12-18T10:11:42.190Z,57.65
2022-12-18T10:13:00.934Z,57.94
2022-12-18T10:14:17.786Z,59.02
2022-12-18T10:15:32.720Z,58.71
2022-12-18T10:16:43.870Z,58.58
2022-12-18T10:17:54.082Z,59.07
2022-12-18T10:19:20.559Z,59.34
2022-12-18T10:20:31.008Z,59.54
2022-12-18T10:21:41.648Z,58.74
2022-12-18T10:22:55.477Z,58.61
2022-12-18T10:24:07.075Z,59.26
2022-12-18T10:25:21.599Z,58.83
2022-12-18T10:26:25.023Z,59.01
2022-12-18T10:27:29.355Z,59.42
2022-12-18T10:28:34.959Z,58.79
2022-12-18T10:29:37.557Z,58.72
2022-12-18T10:30:43.681Z,59.42
2022-12-18T10:31:46.040Z,59.11
2022-12-18T10:32:49.335Z,59.42
2022-12-18T10:33:51.666Z,60.83
2022-12-18T10:35:00.507Z,60.29
2022-12-18T10:36:04.509Z,60.02
2022-12-18T10:37:14.024Z,59.35
2022-12-18T10:38:26.174Z,58.16
2022-12-18T10:39:28.331Z,57.73
2022-12-18T10:40:32.665Z,58.03
2022-12-18T10:41:34.947Z,57.57
2022-12-18T10:42:38.437Z,58.21
2022-12-18T10:43:42.826Z,58.21
2022-12-18T10:44:45.343Z,58.59
2022-12-18T10:46:02.868Z,58.54
2022-12-18T10:47:12.900Z,59.03
2022-12-18T10:48:23.450Z,59.12
2022-12-18T10:49:29.690Z,58.45
2022-12-18T10:51:09.308Z,57.70
2022-12-18T10:52:16.655Z,57.86
2022-12-18T10:53:22.877Z,57.66
2022-12-18T10:54:27.543Z,57.08
2022-12-18T10:55:35.091Z,57.40
2022-12-18T10:56:40.285Z,57.96
2022-12-18T10:57:44.598Z,58.21
2022-12-18T10:58:58.620Z,58.88
2022-12-18T11:00:22.526Z,59.11
2022-12-18T11:01:28.064Z,59.67
2022-12-18T11:02:38.099Z,59.61
2022-12-18T11:03:43.815Z,58.94
2022-12-18T11:04:53.301Z,59.41
2022-12-18T11:06:05.446Z,59.52
2022-12-18T11:07:11.905Z,59.50
2022-12-18T11:08:23.791Z,58.88
2022-12-18T11:09:28.922Z,60.24
2022-12-18T11:10:33.906Z,59.60
2022-12-18T11:11:37.335Z,59.98
2022-12-18T11:12:39.543Z,60.07
2022-12-18T11:13:43.344Z,59.93
2022-12-18T11:14:49.190Z,60.94
2022-12-18T11:15:53.208Z,60.71
2022-12-18T11:18:29.165Z,60.07
2022-12-18T11:19:36.414Z,60.25
2022-12-18T11:20:41.603Z,60.15
2022-12-18T11:21:44.230Z,59.95
2022-12-18T11:22:58.227Z,60.07
2022-12-18T11:24:01.455Z,60.80
2022-12-18T11:25:32.572Z,61.03
2022-12-18T11:26:37.349Z,60.67
2022-12-18T11:27:40.592Z,60.75
2022-12-18T11:28:48.874Z,60.32
2022-12-18T11:29:53.269Z,60.57
2022-12-18T11:31:17.987Z,62.27
2022-12-18T11:32:36.413Z,61.61
2022-12-18T11:33:58.362Z,62.63
2022-12-18T11:35:19.492Z,61.61
2022-12-18T11:36:24.888Z,62.26
2022-12-18T11:37:30.039Z,61.96
2022-12-18T11:38:37.568Z,62.20
2022-12-18T11:39:44.005Z,61.75
2022-12-18T11:40:54.180Z,62.35
2022-12-18T11:42:10.393Z,62.38
2022-12-18T11:43:19.432Z,62.09
2022-12-18T11:44:27.689Z,61.03
2022-12-18T11:45:33.382Z,60.95
2022-12-18T11:46:39.642Z,61.00
2022-12-18T11:47:52.108Z,60.91
2022-12-18T11:49:02.454Z,61.15
2022-12-18T11:50:16.522Z,60.68
2022-12-18T11:51:30.488Z,61.38
2022-12-18T11:52:40.067Z,61.44
2022-12-18T11:53:43.509Z,61.02
2022-12-18T11:54:45.787Z,60.74
2022-12-18T11:56:07.219Z,60.75
2022-12-18T11:57:19.840Z,60.05
2022-12-18T11:58:35.530Z,59.24
2022-12-18T11:59:49.640Z,59.31
2022-12-18T12:01:05.679Z,59.15
2022-12-18T12:02:33.330Z,61.43
2022-12-18T12:04:00.290Z,62.69
2022-12-18T12:05:18.609Z,63.02
2022-12-18T12:06:29.408Z,62.58
2022-12-18T12:07:44.261Z,62.69
2022-12-18T12:09:03.844Z,62.83
2022-12-18T12:10:20.942Z,62.50
2022-12-18T12:11:35.735Z,62.60
2022-12-18T12:12:54.831Z,63.48
2022-12-18T12:14:11.415Z,62.94
2022-12-18T12:15:25.385Z,62.49
2022-12-18T12:16:35.793Z,62.61
2022-12-18T12:17:44.062Z,62.17
2022-12-18T12:19:09.190Z,62.04
2022-12-18T12:20:22.646Z,62.18
2022-12-18T12:21:37.044Z,62.47
2022-12-18T12:22:51.967Z,62.89
2022-12-18T12:24:01.748Z,62.94
2022-12-18T12:25:22.568Z,63.62
2022-12-18T12:26:33.961Z,64.74
2022-12-18T12:27:46.824Z,65.74
2022-12-18T12:29:10.657Z,64.32
2022-12-18T12:30:20.266Z,64.48
2022-12-18T12:31:36.161Z,64.98
2022-12-18T12:33:01.925Z,63.86
2022-12-18T12:34:18.997Z,63.68
2022-12-18T12:35:34.658Z,63.75
2022-12-18T12:37:04.013Z,63.57
2022-12-18T12:38:12.418Z,63.12
2022-12-18T12:39:20.291Z,63.24
2022-12-18T12:42:18.799Z,62.88
2022-12-18T12:43:33.521Z,63.96
2022-12-18T12:44:43.068Z,64.55
2022-12-18T12:45:51.661Z,64.45
2022-12-18T12:46:58.684Z,64.55
2022-12-18T12:48:03.706Z,64.39
2022-12-18T12:49:15.725Z,64.47
2022-12-18T12:50:21.528Z,64.13
2022-12-18T12:51:29.453Z,63.91
2022-12-18T12:52:37.135Z,64.46
2022-12-18T12:53:42.746Z,64.06
2022-12-18T12:54:47.496Z,63.56
2022-12-18T12:55:50.239Z,62.91
2022-12-18T12:57:00.128Z,63.15
2022-12-18T12:58:11.695Z,63.04
2022-12-18T12:59:22.163Z,62.76
2022-12-18T13:00:26.802Z,62.60
2022-12-18T13:01:38.380Z,62.34
2022-12-18T13:02:49.695Z,62.28
2022-12-18T13:04:02.545Z,62.17
2022-12-18T13:05:19.096Z,62.12
2022-12-18T13:06:36.927Z,62.74
2022-12-18T13:07:47.677Z,62.93
2022-12-18T13:08:57.765Z,62.84
2022-12-18T13:10:17.884Z,62.32
2022-12-18T13:11:54.929Z,62.68
2022-12-18T13:13:04.210Z,63.72
2022-12-18T13:14:25.199Z,62.85
2022-12-18T13:15:35.867Z,62.17
2022-12-18T13:16:41.481Z,61.54
2022-12-18T13:17:45.294Z,62.18
2022-12-18T13:18:52.933Z,61.92
2022-12-18T13:20:11.735Z,61.97
2022-12-18T13:21:24.604Z,61.34
2022-12-18T13:22:34.901Z,61.88
2022-12-18T13:23:39.593Z,62.13
2022-12-18T13:24:42.052Z,62.69
2022-12-18T13:25:45.696Z,63.48
2022-12-18T13:26:47.948Z,64.00
2022-12-18T13:28:02.918Z,64.81
2022-12-18T13:29:07.315Z,65.37
2022-12-18T13:30:46.400Z,65.54
2022-12-18T13:32:22.900Z,65.84
2022-12-18T13:35:41.669Z,63.62
2022-12-18T13:36:45.532Z,63.60
2022-12-18T13:37:54.091Z,63.21
2022-12-18T13:39:32.788Z,62.24
2022-12-18T13:40:57.465Z,62.30
2022-12-18T13:42:57.923Z,62.79
2022-12-18T13:44:14.497Z,62.93
2022-12-18T13:45:47.559Z,63.04
2022-12-18T13:46:53.417Z,62.43
2022-12-18T13:47:55.976Z,63.05
2022-12-18T13:49:03.640Z,63.38
2022-12-18T13:50:22.199Z,63.64
2022-12-18T13:51:28.428Z,63.80
2022-12-18T13:52:38.501Z,62.92
2022-12-18T13:53:46.798Z,62.86
2022-12-18T13:54:53.795Z,63.12
2022-12-18T13:55:56.775Z,63.80
2022-12-18T13:57:00.035Z,63.68
2022-12-18T13:58:05.911Z,63.92
2022-12-18T13:59:22.981Z,64.35
2022-12-18T14:00:29.778Z,63.94
2022-12-18T14:01:33.175Z,64.26
2022-12-18T14:02:36.950Z,64.29
2022-12-18T14:03:40.698Z,64.78
2022-12-18T14:04:48.888Z,64.71
2022-12-18T14:06:00.685Z,64.77
2022-12-18T14:07:08.090Z,64.83
2022-12-18T14:08:14.071Z,64.77
2022-12-18T14:09:21.469Z,65.01
2022-12-18T14:10:47.794Z,64.69
2022-12-18T14:11:50.580Z,64.60
2022-12-18T14:12:57.929Z,64.64
2022-12-18T14:14:08.338Z,64.49
2022-12-18T14:15:23.357Z,64.92
2022-12-18T14:16:27.366Z,64.59
2022-12-18T14:17:30.705Z,64.63
2022-12-18T14:18:41.435Z,65.05
2022-12-18T14:19:46.020Z,66.33
2022-12-18T14:20:52.831Z,65.89
2022-12-18T14:21:55.682Z,65.41
2022-12-18T14:23:01.244Z,65.58
2022-12-18T14:24:15.823Z,65.92
2022-12-18T14:25:25.430Z,66.18
2022-12-18T14:26:30.953Z,66.08